sensor_id;sensor_type;location;lat;lon;timestamp;P1;durP1;ratioP1;P2;durP2;ratioP2
38465;SDS011;24244;51.950;5.902;2022-10-31T00:00:29;14.60;;;9.05;;
38465;SDS011;24244;51.950;5.902;2022-10-31T00:02:58;15.70;;;8.75;;
38465;SDS011;24244;51.950;5.902;2022-10-31T00:07:52;13.73;;;8.02;;
38465;SDS011;24244;51.950;5.902;2022-10-31T00:10:18;16.85;;;8.75;;
38465;SDS011;24244;51.950;5.902;2022-10-31T00:12:45;12.70;;;8.38;;
38465;SDS011;24244;51.950;5.902;2022-10-31T00:15:12;15.18;;;8.82;;
38465;SDS011;24244;51.950;5.902;2022-10-31T00:17:39;14.80;;;8.68;;
38465;SDS011;24244;51.950;5.902;2022-10-31T00:20:08;16.92;;;9.20;;
38465;SDS011;24244;51.950;5.902;2022-10-31T00:22:35;15.18;;;8.48;;
38465;SDS011;24244;51.950;5.902;2022-10-31T00:25:02;17.05;;;9.32;;
38465;SDS011;24244;51.950;5.902;2022-10-31T00:27:30;15.32;;;8.73;;
38465;SDS011;24244;51.950;5.902;2022-10-31T00:29:57;16.83;;;9.80;;
38465;SDS011;24244;51.950;5.902;2022-10-31T00:32:24;15.93;;;9.32;;
38465;SDS011;24244;51.950;5.902;2022-10-31T00:34:51;14.65;;;8.52;;
38465;SDS011;24244;51.950;5.902;2022-10-31T00:37:19;15.88;;;9.38;;
38465;SDS011;24244;51.950;5.902;2022-10-31T00:39:48;18.75;;;8.90;;
38465;SDS011;24244;51.950;5.902;2022-10-31T00:42:15;13.73;;;8.82;;
38465;SDS011;24244;51.950;5.902;2022-10-31T00:44:42;16.17;;;9.32;;
38465;SDS011;24244;51.950;5.902;2022-10-31T00:47:09;16.35;;;10.00;;
38465;SDS011;24244;51.950;5.902;2022-10-31T00:49:35;15.82;;;8.85;;
38465;SDS011;24244;51.950;5.902;2022-10-31T00:52:02;15.77;;;8.70;;
38465;SDS011;24244;51.950;5.902;2022-10-31T00:54:30;15.45;;;8.85;;
38465;SDS011;24244;51.950;5.902;2022-10-31T00:56:57;14.93;;;8.98;;
38465;SDS011;24244;51.950;5.902;2022-10-31T00:59:24;15.63;;;8.93;;
38465;SDS011;24244;51.950;5.902;2022-10-31T01:01:50;16.08;;;9.32;;
38465;SDS011;24244;51.950;5.902;2022-10-31T01:04:17;15.10;;;8.82;;
38465;SDS011;24244;51.950;5.902;2022-10-31T01:06:44;14.73;;;8.77;;
38465;SDS011;24244;51.950;5.902;2022-10-31T01:09:10;14.02;;;8.65;;
38465;SDS011;24244;51.950;5.902;2022-10-31T01:11:39;15.77;;;9.00;;
38465;SDS011;24244;51.950;5.902;2022-10-31T01:14:05;14.23;;;8.95;;
38465;SDS011;24244;51.950;5.902;2022-10-31T01:16:34;13.85;;;8.43;;
38465;SDS011;24244;51.950;5.902;2022-10-31T01:19:00;15.00;;;8.98;;
38465;SDS011;24244;51.950;5.902;2022-10-31T01:21:28;16.40;;;8.63;;
38465;SDS011;24244;51.950;5.902;2022-10-31T01:23:56;18.02;;;9.32;;
38465;SDS011;24244;51.950;5.902;2022-10-31T01:26:23;14.52;;;8.85;;
38465;SDS011;24244;51.950;5.902;2022-10-31T01:28:53;15.48;;;8.75;;
38465;SDS011;24244;51.950;5.902;2022-10-31T01:31:23;15.25;;;8.27;;
38465;SDS011;24244;51.950;5.902;2022-10-31T01:33:52;16.38;;;8.77;;
38465;SDS011;24244;51.950;5.902;2022-10-31T01:36:20;15.27;;;9.10;;
38465;SDS011;24244;51.950;5.902;2022-10-31T01:38:48;15.70;;;9.10;;
38465;SDS011;24244;51.950;5.902;2022-10-31T01:41:17;15.07;;;9.18;;
38465;SDS011;24244;51.950;5.902;2022-10-31T01:43:46;18.17;;;9.23;;
38465;SDS011;24244;51.950;5.902;2022-10-31T01:46:17;16.55;;;9.15;;
38465;SDS011;24244;51.950;5.902;2022-10-31T01:48:46;14.27;;;9.02;;
38465;SDS011;24244;51.950;5.902;2022-10-31T01:51:14;15.52;;;9.60;;
38465;SDS011;24244;51.950;5.902;2022-10-31T01:53:43;16.52;;;8.73;;
38465;SDS011;24244;51.950;5.902;2022-10-31T01:58:40;14.10;;;8.35;;
38465;SDS011;24244;51.950;5.902;2022-10-31T02:01:08;14.27;;;8.80;;
38465;SDS011;24244;51.950;5.902;2022-10-31T02:03:36;15.80;;;8.90;;
38465;SDS011;24244;51.950;5.902;2022-10-31T02:06:03;14.38;;;8.40;;
38465;SDS011;24244;51.950;5.902;2022-10-31T02:08:36;15.73;;;9.23;;
38465;SDS011;24244;51.950;5.902;2022-10-31T02:11:05;14.48;;;8.70;;
38465;SDS011;24244;51.950;5.902;2022-10-31T02:13:33;14.13;;;8.75;;
38465;SDS011;24244;51.950;5.902;2022-10-31T02:16:00;16.05;;;9.20;;
38465;SDS011;24244;51.950;5.902;2022-10-31T02:18:27;14.90;;;8.73;;
38465;SDS011;24244;51.950;5.902;2022-10-31T02:21:02;15.13;;;8.57;;
38465;SDS011;24244;51.950;5.902;2022-10-31T02:24:00;15.35;;;9.00;;
38465;SDS011;24244;51.950;5.902;2022-10-31T02:30:03;16.33;;;9.18;;
38465;SDS011;24244;51.950;5.902;2022-10-31T02:32:36;16.23;;;9.48;;
38465;SDS011;24244;51.950;5.902;2022-10-31T02:35:12;14.48;;;9.18;;
38465;SDS011;24244;51.950;5.902;2022-10-31T02:37:48;15.23;;;9.15;;
38465;SDS011;24244;51.950;5.902;2022-10-31T02:40:24;16.75;;;9.35;;
38465;SDS011;24244;51.950;5.902;2022-10-31T02:42:56;15.30;;;9.02;;
38465;SDS011;24244;51.950;5.902;2022-10-31T02:45:30;15.75;;;9.13;;
38465;SDS011;24244;51.950;5.902;2022-10-31T02:48:07;17.48;;;10.02;;
38465;SDS011;24244;51.950;5.902;2022-10-31T02:50:37;15.10;;;9.70;;
38465;SDS011;24244;51.950;5.902;2022-10-31T02:53:13;15.52;;;9.07;;
38465;SDS011;24244;51.950;5.902;2022-10-31T02:55:42;15.52;;;9.73;;
38465;SDS011;24244;51.950;5.902;2022-10-31T02:58:18;17.58;;;10.25;;
38465;SDS011;24244;51.950;5.902;2022-10-31T03:00:51;17.00;;;9.43;;
38465;SDS011;24244;51.950;5.902;2022-10-31T03:03:30;17.88;;;9.85;;
38465;SDS011;24244;51.950;5.902;2022-10-31T03:06:05;16.33;;;9.90;;
38465;SDS011;24244;51.950;5.902;2022-10-31T03:08:39;15.30;;;9.48;;
38465;SDS011;24244;51.950;5.902;2022-10-31T03:11:13;16.15;;;9.55;;
38465;SDS011;24244;51.950;5.902;2022-10-31T03:13:41;18.10;;;10.73;;
38465;SDS011;24244;51.950;5.902;2022-10-31T03:16:16;16.35;;;10.13;;
38465;SDS011;24244;51.950;5.902;2022-10-31T03:18:52;17.25;;;9.65;;
38465;SDS011;24244;51.950;5.902;2022-10-31T03:21:23;15.02;;;9.18;;
38465;SDS011;24244;51.950;5.902;2022-10-31T03:23:55;16.33;;;9.13;;
38465;SDS011;24244;51.950;5.902;2022-10-31T03:26:23;15.98;;;9.82;;
38465;SDS011;24244;51.950;5.902;2022-10-31T03:28:52;16.70;;;9.98;;
38465;SDS011;24244;51.950;5.902;2022-10-31T03:31:24;15.10;;;9.68;;
38465;SDS011;24244;51.950;5.902;2022-10-31T03:33:57;15.93;;;9.75;;
38465;SDS011;24244;51.950;5.902;2022-10-31T03:36:27;16.83;;;10.60;;
38465;SDS011;24244;51.950;5.902;2022-10-31T03:38:56;16.77;;;9.52;;
38465;SDS011;24244;51.950;5.902;2022-10-31T03:41:27;14.50;;;9.88;;
38465;SDS011;24244;51.950;5.902;2022-10-31T03:43:59;17.33;;;10.23;;
38465;SDS011;24244;51.950;5.902;2022-10-31T03:46:30;15.68;;;9.65;;
38465;SDS011;24244;51.950;5.902;2022-10-31T03:48:58;15.68;;;9.85;;
38465;SDS011;24244;51.950;5.902;2022-10-31T03:51:26;15.68;;;9.70;;
38465;SDS011;24244;51.950;5.902;2022-10-31T03:54:01;14.65;;;9.35;;
38465;SDS011;24244;51.950;5.902;2022-10-31T03:56:36;15.95;;;9.90;;
38465;SDS011;24244;51.950;5.902;2022-10-31T03:59:07;15.05;;;9.65;;
38465;SDS011;24244;51.950;5.902;2022-10-31T04:01:43;17.15;;;9.80;;
38465;SDS011;24244;51.950;5.902;2022-10-31T04:04:14;18.02;;;10.05;;
38465;SDS011;24244;51.950;5.902;2022-10-31T04:06:42;18.48;;;9.98;;
38465;SDS011;24244;51.950;5.902;2022-10-31T04:09:10;15.05;;;10.18;;
38465;SDS011;24244;51.950;5.902;2022-10-31T04:11:40;14.50;;;9.07;;
38465;SDS011;24244;51.950;5.902;2022-10-31T04:14:10;15.25;;;8.85;;
38465;SDS011;24244;51.950;5.902;2022-10-31T04:16:38;15.02;;;8.68;;
38465;SDS011;24244;51.950;5.902;2022-10-31T04:19:10;13.88;;;9.05;;
38465;SDS011;24244;51.950;5.902;2022-10-31T04:21:39;15.70;;;9.50;;
38465;SDS011;24244;51.950;5.902;2022-10-31T04:24:09;15.32;;;9.15;;
38465;SDS011;24244;51.950;5.902;2022-10-31T04:26:36;16.42;;;9.68;;
38465;SDS011;24244;51.950;5.902;2022-10-31T04:29:03;14.05;;;9.38;;
38465;SDS011;24244;51.950;5.902;2022-10-31T04:31:30;14.70;;;9.27;;
38465;SDS011;24244;51.950;5.902;2022-10-31T04:33:56;16.48;;;9.98;;
38465;SDS011;24244;51.950;5.902;2022-10-31T04:36:23;16.25;;;10.18;;
38465;SDS011;24244;51.950;5.902;2022-10-31T04:38:51;15.32;;;9.25;;
38465;SDS011;24244;51.950;5.902;2022-10-31T04:41:18;18.08;;;10.10;;
38465;SDS011;24244;51.950;5.902;2022-10-31T04:43:45;15.90;;;9.85;;
38465;SDS011;24244;51.950;5.902;2022-10-31T04:46:12;15.82;;;9.63;;
38465;SDS011;24244;51.950;5.902;2022-10-31T04:48:38;16.35;;;9.73;;
38465;SDS011;24244;51.950;5.902;2022-10-31T04:51:05;15.45;;;9.07;;
38465;SDS011;24244;51.950;5.902;2022-10-31T04:53:33;15.63;;;9.52;;
38465;SDS011;24244;51.950;5.902;2022-10-31T04:56:01;17.77;;;10.88;;
38465;SDS011;24244;51.950;5.902;2022-10-31T04:58:28;16.83;;;9.82;;
38465;SDS011;24244;51.950;5.902;2022-10-31T05:00:55;15.32;;;9.82;;
38465;SDS011;24244;51.950;5.902;2022-10-31T05:03:22;16.20;;;9.80;;
38465;SDS011;24244;51.950;5.902;2022-10-31T05:05:49;15.43;;;9.93;;
38465;SDS011;24244;51.950;5.902;2022-10-31T05:08:22;18.13;;;10.13;;
38465;SDS011;24244;51.950;5.902;2022-10-31T05:10:49;16.25;;;9.85;;
38465;SDS011;24244;51.950;5.902;2022-10-31T05:13:17;16.30;;;10.35;;
38465;SDS011;24244;51.950;5.902;2022-10-31T05:18:11;14.43;;;8.75;;
38465;SDS011;24244;51.950;5.902;2022-10-31T05:20:38;14.50;;;9.02;;
38465;SDS011;24244;51.950;5.902;2022-10-31T05:23:05;16.50;;;9.38;;
38465;SDS011;24244;51.950;5.902;2022-10-31T05:25:32;16.40;;;10.15;;
38465;SDS011;24244;51.950;5.902;2022-10-31T05:27:58;16.58;;;9.50;;
38465;SDS011;24244;51.950;5.902;2022-10-31T05:30:27;15.85;;;9.35;;
38465;SDS011;24244;51.950;5.902;2022-10-31T05:32:56;15.75;;;9.50;;
38465;SDS011;24244;51.950;5.902;2022-10-31T05:35:24;13.93;;;8.77;;
38465;SDS011;24244;51.950;5.902;2022-10-31T05:37:52;14.45;;;9.23;;
38465;SDS011;24244;51.950;5.902;2022-10-31T05:40:19;16.98;;;10.02;;
38465;SDS011;24244;51.950;5.902;2022-10-31T05:42:49;17.90;;;9.68;;
38465;SDS011;24244;51.950;5.902;2022-10-31T05:45:18;16.00;;;9.40;;
38465;SDS011;24244;51.950;5.902;2022-10-31T05:47:51;15.95;;;9.70;;
38465;SDS011;24244;51.950;5.902;2022-10-31T05:50:18;16.35;;;9.02;;
38465;SDS011;24244;51.950;5.902;2022-10-31T05:52:45;15.65;;;9.63;;
38465;SDS011;24244;51.950;5.902;2022-10-31T05:55:12;16.30;;;9.85;;
38465;SDS011;24244;51.950;5.902;2022-10-31T05:57:42;17.02;;;10.43;;
38465;SDS011;24244;51.950;5.902;2022-10-31T06:00:09;17.13;;;10.38;;
38465;SDS011;24244;51.950;5.902;2022-10-31T06:02:36;19.77;;;10.23;;
38465;SDS011;24244;51.950;5.902;2022-10-31T06:05:06;18.63;;;10.48;;
38465;SDS011;24244;51.950;5.902;2022-10-31T06:07:36;18.27;;;10.23;;
38465;SDS011;24244;51.950;5.902;2022-10-31T06:10:04;18.60;;;10.90;;
38465;SDS011;24244;51.950;5.902;2022-10-31T06:12:32;20.42;;;10.98;;
38465;SDS011;24244;51.950;5.902;2022-10-31T06:15:04;18.45;;;10.48;;
38465;SDS011;24244;51.950;5.902;2022-10-31T06:17:32;17.67;;;10.15;;
38465;SDS011;24244;51.950;5.902;2022-10-31T06:19:59;17.27;;;10.10;;
38465;SDS011;24244;51.950;5.902;2022-10-31T06:22:28;17.25;;;9.63;;
38465;SDS011;24244;51.950;5.902;2022-10-31T06:24:54;18.95;;;10.93;;
38465;SDS011;24244;51.950;5.902;2022-10-31T06:27:21;21.58;;;11.20;;
38465;SDS011;24244;51.950;5.902;2022-10-31T06:29:48;21.83;;;10.52;;
38465;SDS011;24244;51.950;5.902;2022-10-31T06:32:15;18.33;;;10.45;;
38465;SDS011;24244;51.950;5.902;2022-10-31T06:34:42;18.88;;;10.77;;
38465;SDS011;24244;51.950;5.902;2022-10-31T06:37:10;17.52;;;10.07;;
38465;SDS011;24244;51.950;5.902;2022-10-31T06:39:39;17.88;;;9.88;;
38465;SDS011;24244;51.950;5.902;2022-10-31T06:42:06;20.20;;;10.65;;
38465;SDS011;24244;51.950;5.902;2022-10-31T06:44:33;20.55;;;11.68;;
38465;SDS011;24244;51.950;5.902;2022-10-31T06:47:00;21.58;;;11.18;;
38465;SDS011;24244;51.950;5.902;2022-10-31T06:49:26;20.65;;;10.70;;
38465;SDS011;24244;51.950;5.902;2022-10-31T06:51:53;22.13;;;11.50;;
38465;SDS011;24244;51.950;5.902;2022-10-31T06:54:24;21.95;;;11.45;;
38465;SDS011;24244;51.950;5.902;2022-10-31T06:56:52;18.48;;;11.10;;
38465;SDS011;24244;51.950;5.902;2022-10-31T06:59:19;18.13;;;10.60;;
38465;SDS011;24244;51.950;5.902;2022-10-31T07:01:46;16.23;;;10.50;;
38465;SDS011;24244;51.950;5.902;2022-10-31T07:04:13;16.65;;;10.68;;
38465;SDS011;24244;51.950;5.902;2022-10-31T07:06:40;16.55;;;10.27;;
38465;SDS011;24244;51.950;5.902;2022-10-31T07:09:17;16.50;;;10.52;;
38465;SDS011;24244;51.950;5.902;2022-10-31T07:11:45;17.67;;;11.10;;
38465;SDS011;24244;51.950;5.902;2022-10-31T07:14:13;18.05;;;10.73;;
38465;SDS011;24244;51.950;5.902;2022-10-31T07:16:40;18.57;;;10.67;;
38465;SDS011;24244;51.950;5.902;2022-10-31T07:19:06;15.68;;;10.00;;
38465;SDS011;24244;51.950;5.902;2022-10-31T07:21:33;16.25;;;10.10;;
38465;SDS011;24244;51.950;5.902;2022-10-31T07:24:00;16.67;;;9.63;;
38465;SDS011;24244;51.950;5.902;2022-10-31T07:26:31;17.02;;;9.68;;
38465;SDS011;24244;51.950;5.902;2022-10-31T07:28:58;16.13;;;9.68;;
38465;SDS011;24244;51.950;5.902;2022-10-31T07:31:26;16.02;;;9.43;;
38465;SDS011;24244;51.950;5.902;2022-10-31T07:33:53;13.60;;;9.20;;
38465;SDS011;24244;51.950;5.902;2022-10-31T07:36:20;14.20;;;8.80;;
38465;SDS011;24244;51.950;5.902;2022-10-31T07:38:47;15.00;;;9.30;;
38465;SDS011;24244;51.950;5.902;2022-10-31T07:41:14;15.48;;;9.73;;
38465;SDS011;24244;51.950;5.902;2022-10-31T07:43:40;15.43;;;9.35;;
38465;SDS011;24244;51.950;5.902;2022-10-31T07:46:07;14.65;;;9.63;;
38465;SDS011;24244;51.950;5.902;2022-10-31T07:48:35;14.32;;;9.65;;
38465;SDS011;24244;51.950;5.902;2022-10-31T07:51:02;13.93;;;9.73;;
38465;SDS011;24244;51.950;5.902;2022-10-31T07:53:29;15.48;;;9.30;;
38465;SDS011;24244;51.950;5.902;2022-10-31T07:56:01;13.85;;;9.02;;
38465;SDS011;24244;51.950;5.902;2022-10-31T07:58:28;14.20;;;9.38;;
38465;SDS011;24244;51.950;5.902;2022-10-31T08:00:54;14.88;;;9.60;;
38465;SDS011;24244;51.950;5.902;2022-10-31T08:03:21;16.35;;;10.40;;
38465;SDS011;24244;51.950;5.902;2022-10-31T08:05:49;16.75;;;11.10;;
38465;SDS011;24244;51.950;5.902;2022-10-31T08:08:16;16.47;;;10.43;;
38465;SDS011;24244;51.950;5.902;2022-10-31T08:10:43;16.83;;;10.88;;
38465;SDS011;24244;51.950;5.902;2022-10-31T08:13:11;16.20;;;11.30;;
38465;SDS011;24244;51.950;5.902;2022-10-31T08:15:39;15.75;;;10.52;;
38465;SDS011;24244;51.950;5.902;2022-10-31T08:18:10;16.92;;;11.63;;
38465;SDS011;24244;51.950;5.902;2022-10-31T08:20:40;17.20;;;11.23;;
38465;SDS011;24244;51.950;5.902;2022-10-31T08:23:09;18.33;;;12.15;;
38465;SDS011;24244;51.950;5.902;2022-10-31T08:25:37;20.65;;;12.65;;
38465;SDS011;24244;51.950;5.902;2022-10-31T08:28:04;17.88;;;12.35;;
38465;SDS011;24244;51.950;5.902;2022-10-31T08:30:33;19.33;;;12.43;;
38465;SDS011;24244;51.950;5.902;2022-10-31T08:33:03;19.10;;;12.25;;
38465;SDS011;24244;51.950;5.902;2022-10-31T08:35:32;19.02;;;12.73;;
38465;SDS011;24244;51.950;5.902;2022-10-31T08:37:59;20.70;;;13.55;;
38465;SDS011;24244;51.950;5.902;2022-10-31T08:40:29;21.83;;;15.15;;
38465;SDS011;24244;51.950;5.902;2022-10-31T08:43:00;20.92;;;13.75;;
38465;SDS011;24244;51.950;5.902;2022-10-31T08:45:28;23.80;;;15.35;;
38465;SDS011;24244;51.950;5.902;2022-10-31T08:47:57;22.95;;;14.93;;
38465;SDS011;24244;51.950;5.902;2022-10-31T08:50:25;20.33;;;13.48;;
38465;SDS011;24244;51.950;5.902;2022-10-31T08:52:53;21.88;;;13.82;;
38465;SDS011;24244;51.950;5.902;2022-10-31T08:55:36;23.70;;;14.35;;
38465;SDS011;24244;51.950;5.902;2022-10-31T08:58:05;22.67;;;16.05;;
38465;SDS011;24244;51.950;5.902;2022-10-31T09:00:33;21.08;;;15.02;;
38465;SDS011;24244;51.950;5.902;2022-10-31T09:03:01;21.67;;;15.70;;
38465;SDS011;24244;51.950;5.902;2022-10-31T09:05:30;22.63;;;15.27;;
38465;SDS011;24244;51.950;5.902;2022-10-31T09:07:57;23.90;;;15.95;;
38465;SDS011;24244;51.950;5.902;2022-10-31T09:10:26;26.98;;;16.75;;
38465;SDS011;24244;51.950;5.902;2022-10-31T09:12:55;26.05;;;16.98;;
38465;SDS011;24244;51.950;5.902;2022-10-31T09:15:24;21.60;;;14.73;;
38465;SDS011;24244;51.950;5.902;2022-10-31T09:17:51;20.98;;;14.32;;
38465;SDS011;24244;51.950;5.902;2022-10-31T09:20:18;24.13;;;15.80;;
38465;SDS011;24244;51.950;5.902;2022-10-31T09:22:45;25.23;;;17.30;;
38465;SDS011;24244;51.950;5.902;2022-10-31T09:25:12;22.95;;;15.88;;
38465;SDS011;24244;51.950;5.902;2022-10-31T09:27:39;25.25;;;16.95;;
38465;SDS011;24244;51.950;5.902;2022-10-31T09:30:08;27.48;;;17.98;;
38465;SDS011;24244;51.950;5.902;2022-10-31T09:32:35;28.20;;;18.75;;
38465;SDS011;24244;51.950;5.902;2022-10-31T09:35:02;26.25;;;17.40;;
38465;SDS011;24244;51.950;5.902;2022-10-31T09:37:29;27.08;;;17.73;;
38465;SDS011;24244;51.950;5.902;2022-10-31T09:39:56;26.67;;;17.83;;
38465;SDS011;24244;51.950;5.902;2022-10-31T09:45:14;30.10;;;18.52;;
38465;SDS011;24244;51.950;5.902;2022-10-31T09:47:52;28.13;;;18.10;;
38465;SDS011;24244;51.950;5.902;2022-10-31T09:50:37;26.42;;;17.35;;
38465;SDS011;24244;51.950;5.902;2022-10-31T09:53:08;26.20;;;17.00;;
38465;SDS011;24244;51.950;5.902;2022-10-31T09:55:42;29.95;;;18.40;;
38465;SDS011;24244;51.950;5.902;2022-10-31T09:58:15;28.00;;;17.27;;
38465;SDS011;24244;51.950;5.902;2022-10-31T10:00:49;26.20;;;16.67;;
38465;SDS011;24244;51.950;5.902;2022-10-31T10:03:21;26.23;;;16.83;;
38465;SDS011;24244;51.950;5.902;2022-10-31T10:05:56;27.30;;;17.45;;
38465;SDS011;24244;51.950;5.902;2022-10-31T10:08:32;30.48;;;17.17;;
38465;SDS011;24244;51.950;5.902;2022-10-31T10:11:08;28.15;;;17.40;;
38465;SDS011;24244;51.950;5.902;2022-10-31T10:14:05;26.67;;;16.83;;
38465;SDS011;24244;51.950;5.902;2022-10-31T10:16:46;28.67;;;17.13;;
38465;SDS011;24244;51.950;5.902;2022-10-31T10:19:28;27.77;;;17.00;;
38465;SDS011;24244;51.950;5.902;2022-10-31T10:22:07;31.05;;;17.65;;
38465;SDS011;24244;51.950;5.902;2022-10-31T10:24:47;29.95;;;18.10;;
38465;SDS011;24244;51.950;5.902;2022-10-31T10:27:27;30.55;;;17.98;;
38465;SDS011;24244;51.950;5.902;2022-10-31T10:30:04;32.33;;;19.30;;
38465;SDS011;24244;51.950;5.902;2022-10-31T10:32:42;31.58;;;18.95;;
38465;SDS011;24244;51.950;5.902;2022-10-31T10:35:20;35.00;;;19.48;;
38465;SDS011;24244;51.950;5.902;2022-10-31T10:37:56;32.60;;;18.58;;
38465;SDS011;24244;51.950;5.902;2022-10-31T10:40:29;33.53;;;19.13;;
38465;SDS011;24244;51.950;5.902;2022-10-31T10:42:59;32.85;;;19.02;;
38465;SDS011;24244;51.950;5.902;2022-10-31T10:46:05;33.88;;;19.13;;
38465;SDS011;24244;51.950;5.902;2022-10-31T10:49:04;29.95;;;17.70;;
38465;SDS011;24244;51.950;5.902;2022-10-31T10:51:45;32.30;;;18.23;;
38465;SDS011;24244;51.950;5.902;2022-10-31T10:54:38;29.05;;;17.30;;
38465;SDS011;24244;51.950;5.902;2022-10-31T10:57:25;29.38;;;17.02;;
38465;SDS011;24244;51.950;5.902;2022-10-31T11:02:31;25.63;;;15.25;;
38465;SDS011;24244;51.950;5.902;2022-10-31T11:05:00;29.92;;;17.55;;
38465;SDS011;24244;51.950;5.902;2022-10-31T11:07:37;29.98;;;17.65;;
38465;SDS011;24244;51.950;5.902;2022-10-31T11:10:04;31.30;;;17.50;;
38465;SDS011;24244;51.950;5.902;2022-10-31T11:12:39;30.52;;;16.70;;
38465;SDS011;24244;51.950;5.902;2022-10-31T11:15:07;28.50;;;17.38;;
38465;SDS011;24244;51.950;5.902;2022-10-31T11:17:49;26.83;;;16.95;;
38465;SDS011;24244;51.950;5.902;2022-10-31T11:20:26;26.67;;;16.52;;
38465;SDS011;24244;51.950;5.902;2022-10-31T11:23:02;28.05;;;16.77;;
38465;SDS011;24244;51.950;5.902;2022-10-31T11:25:32;29.85;;;17.15;;
38465;SDS011;24244;51.950;5.902;2022-10-31T11:27:59;29.05;;;17.02;;
38465;SDS011;24244;51.950;5.902;2022-10-31T11:30:26;29.25;;;17.75;;
38465;SDS011;24244;51.950;5.902;2022-10-31T11:32:56;29.05;;;18.30;;
38465;SDS011;24244;51.950;5.902;2022-10-31T11:35:26;30.52;;;17.75;;
38465;SDS011;24244;51.950;5.902;2022-10-31T11:37:54;32.25;;;19.55;;
38465;SDS011;24244;51.950;5.902;2022-10-31T11:40:26;33.00;;;18.73;;
38465;SDS011;24244;51.950;5.902;2022-10-31T11:42:56;34.17;;;19.67;;
38465;SDS011;24244;51.950;5.902;2022-10-31T11:45:29;34.83;;;19.30;;
38465;SDS011;24244;51.950;5.902;2022-10-31T11:48:00;31.63;;;18.52;;
38465;SDS011;24244;51.950;5.902;2022-10-31T11:50:31;34.22;;;19.70;;
38465;SDS011;24244;51.950;5.902;2022-10-31T11:53:01;34.28;;;18.58;;
38465;SDS011;24244;51.950;5.902;2022-10-31T11:55:30;30.45;;;18.77;;
38465;SDS011;24244;51.950;5.902;2022-10-31T11:57:59;36.90;;;20.80;;
38465;SDS011;24244;51.950;5.902;2022-10-31T12:00:27;31.50;;;18.70;;
38465;SDS011;24244;51.950;5.902;2022-10-31T12:03:06;33.35;;;18.80;;
38465;SDS011;24244;51.950;5.902;2022-10-31T12:05:39;35.95;;;20.45;;
38465;SDS011;24244;51.950;5.902;2022-10-31T12:08:11;34.60;;;20.50;;
38465;SDS011;24244;51.950;5.902;2022-10-31T12:10:40;33.53;;;18.95;;
38465;SDS011;24244;51.950;5.902;2022-10-31T12:13:27;35.33;;;18.58;;
38465;SDS011;24244;51.950;5.902;2022-10-31T12:16:00;33.63;;;19.35;;
38465;SDS011;24244;51.950;5.902;2022-10-31T12:18:38;31.30;;;18.50;;
38465;SDS011;24244;51.950;5.902;2022-10-31T12:21:31;31.73;;;19.13;;
38465;SDS011;24244;51.950;5.902;2022-10-31T12:24:13;34.67;;;18.63;;
38465;SDS011;24244;51.950;5.902;2022-10-31T12:26:53;30.08;;;18.10;;
38465;SDS011;24244;51.950;5.902;2022-10-31T12:29:32;30.23;;;18.20;;
38465;SDS011;24244;51.950;5.902;2022-10-31T12:32:15;33.55;;;19.45;;
38465;SDS011;24244;51.950;5.902;2022-10-31T12:35:03;34.08;;;20.20;;
38465;SDS011;24244;51.950;5.902;2022-10-31T12:37:47;38.00;;;20.58;;
38465;SDS011;24244;51.950;5.902;2022-10-31T12:40:34;35.75;;;18.77;;
38465;SDS011;24244;51.950;5.902;2022-10-31T12:43:21;33.03;;;19.95;;
38465;SDS011;24244;51.950;5.902;2022-10-31T12:45:58;31.92;;;19.30;;
38465;SDS011;24244;51.950;5.902;2022-10-31T12:48:37;34.70;;;20.63;;
38465;SDS011;24244;51.950;5.902;2022-10-31T12:51:22;33.53;;;19.40;;
38465;SDS011;24244;51.950;5.902;2022-10-31T12:53:59;33.78;;;20.20;;
38465;SDS011;24244;51.950;5.902;2022-10-31T12:56:41;35.88;;;19.48;;
38465;SDS011;24244;51.950;5.902;2022-10-31T12:59:15;35.65;;;21.27;;
38465;SDS011;24244;51.950;5.902;2022-10-31T13:01:49;36.08;;;20.00;;
38465;SDS011;24244;51.950;5.902;2022-10-31T13:04:21;31.73;;;19.35;;
38465;SDS011;24244;51.950;5.902;2022-10-31T13:07:03;35.38;;;20.23;;
38465;SDS011;24244;51.950;5.902;2022-10-31T13:09:37;34.28;;;19.45;;
38465;SDS011;24244;51.950;5.902;2022-10-31T13:12:09;33.88;;;19.60;;
38465;SDS011;24244;51.950;5.902;2022-10-31T13:14:40;33.35;;;20.02;;
38465;SDS011;24244;51.950;5.902;2022-10-31T13:17:13;35.72;;;20.88;;
38465;SDS011;24244;51.950;5.902;2022-10-31T13:19:47;34.47;;;19.13;;
38465;SDS011;24244;51.950;5.902;2022-10-31T13:22:18;35.72;;;20.23;;
38465;SDS011;24244;51.950;5.902;2022-10-31T13:24:55;33.05;;;19.55;;
38465;SDS011;24244;51.950;5.902;2022-10-31T13:27:26;35.33;;;20.13;;
38465;SDS011;24244;51.950;5.902;2022-10-31T13:29:58;33.38;;;18.90;;
38465;SDS011;24244;51.950;5.902;2022-10-31T13:32:36;31.48;;;19.05;;
38465;SDS011;24244;51.950;5.902;2022-10-31T13:35:07;30.85;;;17.70;;
38465;SDS011;24244;51.950;5.902;2022-10-31T13:37:41;33.55;;;18.75;;
38465;SDS011;24244;51.950;5.902;2022-10-31T13:40:24;31.52;;;17.92;;
38465;SDS011;24244;51.950;5.902;2022-10-31T13:43:02;31.02;;;18.23;;
38465;SDS011;24244;51.950;5.902;2022-10-31T13:45:35;33.45;;;18.55;;
38465;SDS011;24244;51.950;5.902;2022-10-31T13:48:18;33.83;;;17.88;;
38465;SDS011;24244;51.950;5.902;2022-10-31T13:50:55;29.77;;;17.33;;
38465;SDS011;24244;51.950;5.902;2022-10-31T13:53:34;26.10;;;16.92;;
38465;SDS011;24244;51.950;5.902;2022-10-31T13:58:37;27.95;;;15.35;;
38465;SDS011;24244;51.950;5.902;2022-10-31T14:01:12;29.65;;;15.90;;
38465;SDS011;24244;51.950;5.902;2022-10-31T14:03:44;30.90;;;17.48;;
38465;SDS011;24244;51.950;5.902;2022-10-31T14:06:36;30.33;;;16.67;;
38465;SDS011;24244;51.950;5.902;2022-10-31T14:09:14;29.02;;;16.73;;
38465;SDS011;24244;51.950;5.902;2022-10-31T14:11:52;28.63;;;16.52;;
38465;SDS011;24244;51.950;5.902;2022-10-31T14:14:22;30.75;;;16.60;;
38465;SDS011;24244;51.950;5.902;2022-10-31T14:16:55;31.17;;;17.25;;
38465;SDS011;24244;51.950;5.902;2022-10-31T14:19:24;29.05;;;17.02;;
38465;SDS011;24244;51.950;5.902;2022-10-31T14:21:52;31.23;;;16.38;;
38465;SDS011;24244;51.950;5.902;2022-10-31T14:24:30;31.50;;;16.70;;
38465;SDS011;24244;51.950;5.902;2022-10-31T14:27:01;27.98;;;15.48;;
38465;SDS011;24244;51.950;5.902;2022-10-31T14:29:29;28.90;;;15.90;;
38465;SDS011;24244;51.950;5.902;2022-10-31T14:31:59;29.63;;;16.63;;
38465;SDS011;24244;51.950;5.902;2022-10-31T14:34:39;30.33;;;17.15;;
38465;SDS011;24244;51.950;5.902;2022-10-31T14:39:55;27.83;;;15.27;;
38465;SDS011;24244;51.950;5.902;2022-10-31T14:42:35;26.75;;;14.98;;
38465;SDS011;24244;51.950;5.902;2022-10-31T14:45:15;28.52;;;16.45;;
38465;SDS011;24244;51.950;5.902;2022-10-31T14:47:55;29.88;;;15.68;;
38465;SDS011;24244;51.950;5.902;2022-10-31T14:50:37;29.33;;;16.00;;
38465;SDS011;24244;51.950;5.902;2022-10-31T14:53:13;29.08;;;16.17;;
38465;SDS011;24244;51.950;5.902;2022-10-31T14:55:45;26.65;;;15.32;;
38465;SDS011;24244;51.950;5.902;2022-10-31T14:58:18;25.92;;;15.68;;
38465;SDS011;24244;51.950;5.902;2022-10-31T15:00:48;29.02;;;16.27;;
38465;SDS011;24244;51.950;5.902;2022-10-31T15:03:18;28.85;;;16.85;;
38465;SDS011;24244;51.950;5.902;2022-10-31T15:05:52;27.98;;;16.92;;
38465;SDS011;24244;51.950;5.902;2022-10-31T15:08:30;28.95;;;16.70;;
38465;SDS011;24244;51.950;5.902;2022-10-31T15:11:09;29.90;;;16.40;;